Pagrindinis puslapis
METAR-TAF:

METAR-TAF

Oro uostai :

Dakaras, Senegalas

platuma: 14-44N, ilguma: 017-30W, Aukštis: 27 m

Dabartinis oras

Ataskaita buvo paskelbta 15 minutes, ne 22:00 UTC
Ramus vėjas
Temperatūra 27°C
Drėgmė 89%
Slėgis 1012 hPa
Matomumas: 8000 m
Mažai debesys ne aukštis 1300 ft

METAR: GOOY 202200Z 00000KT 8000 FEW013 27/25 Q1012

Laikas: 22:15 (22:15 UTC)

Prognozė

Ataskaita buvo paskelbta 4 valandos ir 45 minutes, ne 17:30 UTC
Prognozė galioja nuo 20 metu 18 UTC su 21 metu 24 UTC
Vėjas 7 kt iš Pietų/Pietvakarių
Matomumas 10 km arba daugiau
Išsisklaidę debesys ne aukštis 1300 ft
Tikimybė 40% :
Laikinai
nuo 20 metu 20 UTC su 20 metu 24 UTC
Matomumas: 4500 m
Su prošvaistėmis ne aukštis 1100 ft
Mažai debesys ne aukštis 2500 ft, Liūtiniai kamuoliniai debesys.
perkūnija, lietus

TAF: GOOY 201730Z 2018/2124 20007KT 9999 SCT013 PROB40 TEMPO 2020/2024 4500 TSRA BKN011 FEW025CB

Orai ataskaitas ir orų prognozės (METAR, TAF).

turimą stotys yra geltonos ir raudonos taškus žemėlapyje.

Perkelti pele per norėdami pamatyti stoties vardą.

Tada spustelėkite, norėdami matyti oro stebėjimo ir prognozės.

Norėdami pakeisti žemėlapį: spustelėkite ant žalios mygtukų su juodo kryžiaus žemyn,; žalią mygtuką su brūkšneliu, jei norite nutolinti; arba žalių rodyklių gretimoms žemėlapius.


METAR-TAF: